sensor_id;sensor_type;location;lat;lon;timestamp;pressure;altitude;pressure_sealevel;temperature;humidity
73024;BME280;61199;47.526;8.538;2022-10-16T00:01:28;96441.31;;;17.25;71.50
73024;BME280;61199;47.526;8.538;2022-10-16T00:03:57;96441.78;;;16.98;72.82
73024;BME280;61199;47.526;8.538;2022-10-16T00:06:25;96437.38;;;17.13;72.07
73024;BME280;61199;47.526;8.538;2022-10-16T00:08:52;96441.63;;;17.22;71.92
73024;BME280;61199;47.526;8.538;2022-10-16T00:11:22;96435.91;;;17.11;72.16
73024;BME280;61199;47.526;8.538;2022-10-16T00:13:51;96440.34;;;17.18;71.90
73024;BME280;61199;47.526;8.538;2022-10-16T00:16:18;96442.28;;;17.24;72.01
73024;BME280;61199;47.526;8.538;2022-10-16T00:18:44;96450.28;;;17.16;72.12
73024;BME280;61199;47.526;8.538;2022-10-16T00:21:14;96456.56;;;17.15;71.86
73024;BME280;61199;47.526;8.538;2022-10-16T00:23:41;96454.78;;;16.69;73.70
73024;BME280;61199;47.526;8.538;2022-10-16T00:26:16;96461.16;;;16.52;74.37
73024;BME280;61199;47.526;8.538;2022-10-16T00:28:45;96455.56;;;16.39;74.83
73024;BME280;61199;47.526;8.538;2022-10-16T00:31:12;96468.25;;;16.44;75.01
73024;BME280;61199;47.526;8.538;2022-10-16T00:33:40;96463.47;;;16.47;74.38
73024;BME280;61199;47.526;8.538;2022-10-16T00:36:08;96461.06;;;16.68;73.68
73024;BME280;61199;47.526;8.538;2022-10-16T00:38:35;96466.69;;;16.73;73.93
73024;BME280;61199;47.526;8.538;2022-10-16T00:41:09;96467.34;;;16.75;73.84
73024;BME280;61199;47.526;8.538;2022-10-16T00:46:13;96455.84;;;16.91;73.44
73024;BME280;61199;47.526;8.538;2022-10-16T00:48:45;96462.47;;;16.95;73.41
73024;BME280;61199;47.526;8.538;2022-10-16T00:51:13;96458.34;;;16.92;73.40
73024;BME280;61199;47.526;8.538;2022-10-16T00:53:40;96466.41;;;16.99;73.30
73024;BME280;61199;47.526;8.538;2022-10-16T00:56:06;96457.19;;;16.95;73.05
73024;BME280;61199;47.526;8.538;2022-10-16T00:58:33;96454.81;;;17.00;73.34
73024;BME280;61199;47.526;8.538;2022-10-16T01:01:00;96454.03;;;16.99;73.13
73024;BME280;61199;47.526;8.538;2022-10-16T01:03:28;96446.72;;;17.01;73.13
73024;BME280;61199;47.526;8.538;2022-10-16T01:06:11;96451.66;;;17.04;72.86
73024;BME280;61199;47.526;8.538;2022-10-16T01:09:04;96447.22;;;17.05;72.97
73024;BME280;61199;47.526;8.538;2022-10-16T01:17:12;96472.22;;;16.94;73.29
73024;BME280;61199;47.526;8.538;2022-10-16T01:20:03;96475.66;;;16.64;74.11
73024;BME280;61199;47.526;8.538;2022-10-16T01:25:35;96479.50;;;16.46;75.23
73024;BME280;61199;47.526;8.538;2022-10-16T01:28:06;96478.81;;;16.60;74.75
73024;BME280;61199;47.526;8.538;2022-10-16T01:30:36;96482.25;;;16.68;74.45
73024;BME280;61199;47.526;8.538;2022-10-16T01:33:26;96470.97;;;16.82;74.08
73024;BME280;61199;47.526;8.538;2022-10-16T01:35:58;96477.25;;;16.81;74.25
73024;BME280;61199;47.526;8.538;2022-10-16T01:38:36;96469.97;;;16.83;74.03
73024;BME280;61199;47.526;8.538;2022-10-16T01:41:16;96476.22;;;16.90;73.94
73024;BME280;61199;47.526;8.538;2022-10-16T01:43:50;96476.22;;;16.90;74.09
73024;BME280;61199;47.526;8.538;2022-10-16T01:46:20;96472.88;;;16.96;73.62
73024;BME280;61199;47.526;8.538;2022-10-16T01:48:49;96472.34;;;17.01;73.59
73024;BME280;61199;47.526;8.538;2022-10-16T01:51:18;96469.91;;;16.99;73.87
73024;BME280;61199;47.526;8.538;2022-10-16T01:53:48;96473.72;;;16.97;73.76
73024;BME280;61199;47.526;8.538;2022-10-16T01:56:17;96474.19;;;17.00;73.47
73024;BME280;61199;47.526;8.538;2022-10-16T01:58:48;96470.22;;;16.96;73.69
73024;BME280;61199;47.526;8.538;2022-10-16T02:01:19;96471.88;;;16.97;73.36
73024;BME280;61199;47.526;8.538;2022-10-16T02:03:50;96477.97;;;17.06;73.28
73024;BME280;61199;47.526;8.538;2022-10-16T02:06:18;96476.13;;;17.06;73.21
73024;BME280;61199;47.526;8.538;2022-10-16T02:08:46;96478.88;;;16.90;73.58
73024;BME280;61199;47.526;8.538;2022-10-16T02:11:12;96476.72;;;16.94;73.40
73024;BME280;61199;47.526;8.538;2022-10-16T02:13:44;96477.34;;;16.96;73.58
73024;BME280;61199;47.526;8.538;2022-10-16T02:16:12;96491.06;;;16.99;73.66
73024;BME280;61199;47.526;8.538;2022-10-16T02:18:41;96483.78;;;17.01;73.23
73024;BME280;61199;47.526;8.538;2022-10-16T02:22:09;96472.66;;;17.06;73.33
73024;BME280;61199;47.526;8.538;2022-10-16T02:24:28;96477.81;;;17.07;73.09
73024;BME280;61199;47.526;8.538;2022-10-16T02:27:14;96458.44;;;17.07;72.90
73024;BME280;61199;47.526;8.538;2022-10-16T02:29:49;96471.53;;;17.00;72.92
73024;BME280;61199;47.526;8.538;2022-10-16T02:32:21;96486.31;;;15.84;77.29
73024;BME280;61199;47.526;8.538;2022-10-16T02:34:51;96468.47;;;16.10;76.70
73024;BME280;61199;47.526;8.538;2022-10-16T02:37:18;96494.53;;;15.00;80.17
73024;BME280;61199;47.526;8.538;2022-10-16T02:39:45;96459.25;;;15.01;80.89
73024;BME280;61199;47.526;8.538;2022-10-16T02:42:12;96459.66;;;15.30;80.01
73024;BME280;61199;47.526;8.538;2022-10-16T02:44:39;96457.88;;;15.38;79.25
73024;BME280;61199;47.526;8.538;2022-10-16T02:47:06;96465.16;;;15.60;78.60
73024;BME280;61199;47.526;8.538;2022-10-16T02:49:32;96473.03;;;15.28;79.76
73024;BME280;61199;47.526;8.538;2022-10-16T02:51:58;96497.31;;;15.32;79.08
73024;BME280;61199;47.526;8.538;2022-10-16T02:54:25;96472.13;;;15.53;78.45
73024;BME280;61199;47.526;8.538;2022-10-16T02:56:51;96494.22;;;15.76;77.74
73024;BME280;61199;47.526;8.538;2022-10-16T02:59:17;96492.91;;;15.72;77.40
73024;BME280;61199;47.526;8.538;2022-10-16T03:01:44;96493.59;;;15.82;76.76
73024;BME280;61199;47.526;8.538;2022-10-16T03:04:10;96483.81;;;15.91;76.40
73024;BME280;61199;47.526;8.538;2022-10-16T03:06:37;96492.59;;;15.91;76.61
73024;BME280;61199;47.526;8.538;2022-10-16T03:09:03;96487.63;;;16.04;75.78
73024;BME280;61199;47.526;8.538;2022-10-16T03:11:29;96489.59;;;16.18;75.66
73024;BME280;61199;47.526;8.538;2022-10-16T03:13:56;96492.41;;;16.17;75.28
73024;BME280;61199;47.526;8.538;2022-10-16T03:16:22;96490.25;;;16.28;75.17
73024;BME280;61199;47.526;8.538;2022-10-16T03:18:49;96497.69;;;16.01;75.78
73024;BME280;61199;47.526;8.538;2022-10-16T03:21:16;96493.25;;;16.17;75.47
73024;BME280;61199;47.526;8.538;2022-10-16T03:23:42;96499.50;;;16.24;75.26
73024;BME280;61199;47.526;8.538;2022-10-16T03:26:09;96497.19;;;16.13;75.31
73024;BME280;61199;47.526;8.538;2022-10-16T03:28:35;96498.34;;;16.27;74.99
73024;BME280;61199;47.526;8.538;2022-10-16T03:31:01;96508.75;;;16.20;74.85
73024;BME280;61199;47.526;8.538;2022-10-16T03:33:28;96512.41;;;16.27;74.54
73024;BME280;61199;47.526;8.538;2022-10-16T03:35:54;96512.53;;;16.34;73.86
73024;BME280;61199;47.526;8.538;2022-10-16T03:38:21;96508.75;;;16.28;73.83
73024;BME280;61199;47.526;8.538;2022-10-16T03:40:47;96517.00;;;16.33;73.75
73024;BME280;61199;47.526;8.538;2022-10-16T03:43:14;96506.25;;;16.35;73.65
73024;BME280;61199;47.526;8.538;2022-10-16T03:45:45;96510.41;;;16.21;74.16
73024;BME280;61199;47.526;8.538;2022-10-16T03:48:12;96504.81;;;16.16;74.35
73024;BME280;61199;47.526;8.538;2022-10-16T03:50:38;96503.63;;;16.27;74.42
73024;BME280;61199;47.526;8.538;2022-10-16T03:53:04;96503.13;;;16.15;74.66
73024;BME280;61199;47.526;8.538;2022-10-16T03:55:31;96501.66;;;16.13;74.93
73024;BME280;61199;47.526;8.538;2022-10-16T03:57:57;96502.13;;;16.24;74.59
73024;BME280;61199;47.526;8.538;2022-10-16T04:00:23;96507.75;;;16.29;73.95
73024;BME280;61199;47.526;8.538;2022-10-16T04:02:50;96509.59;;;16.21;73.98
73024;BME280;61199;47.526;8.538;2022-10-16T04:05:16;96509.09;;;16.09;73.95
73024;BME280;61199;47.526;8.538;2022-10-16T04:07:42;96512.38;;;15.87;75.04
73024;BME280;61199;47.526;8.538;2022-10-16T04:10:09;96511.75;;;16.09;74.21
73024;BME280;61199;47.526;8.538;2022-10-16T04:12:36;96514.38;;;16.09;74.22
73024;BME280;61199;47.526;8.538;2022-10-16T04:15:02;96495.88;;;16.09;74.09
73024;BME280;61199;47.526;8.538;2022-10-16T04:17:29;96516.69;;;16.04;74.42
73024;BME280;61199;47.526;8.538;2022-10-16T04:19:55;96506.13;;;16.12;73.86
73024;BME280;61199;47.526;8.538;2022-10-16T04:22:21;96513.75;;;16.07;74.36
73024;BME280;61199;47.526;8.538;2022-10-16T04:24:48;96514.69;;;16.14;74.13
73024;BME280;61199;47.526;8.538;2022-10-16T04:27:14;96506.78;;;16.06;73.98
73024;BME280;61199;47.526;8.538;2022-10-16T04:29:41;96513.56;;;16.17;73.91
73024;BME280;61199;47.526;8.538;2022-10-16T04:32:08;96518.69;;;16.18;73.78
73024;BME280;61199;47.526;8.538;2022-10-16T04:34:35;96522.63;;;16.22;73.88
73024;BME280;61199;47.526;8.538;2022-10-16T04:37:01;96520.31;;;16.19;73.70
73024;BME280;61199;47.526;8.538;2022-10-16T04:39:28;96534.38;;;16.12;74.03
73024;BME280;61199;47.526;8.538;2022-10-16T04:41:54;96533.19;;;16.22;73.67
73024;BME280;61199;47.526;8.538;2022-10-16T04:44:20;96541.97;;;16.15;73.70
73024;BME280;61199;47.526;8.538;2022-10-16T04:46:46;96547.59;;;16.12;73.61
73024;BME280;61199;47.526;8.538;2022-10-16T04:49:13;96548.75;;;16.17;73.30
73024;BME280;61199;47.526;8.538;2022-10-16T04:51:39;96542.47;;;16.02;74.16
73024;BME280;61199;47.526;8.538;2022-10-16T04:54:05;96548.75;;;16.09;73.55
73024;BME280;61199;47.526;8.538;2022-10-16T04:56:32;96545.59;;;16.14;73.43
73024;BME280;61199;47.526;8.538;2022-10-16T04:58:58;96543.63;;;16.16;73.41
73024;BME280;61199;47.526;8.538;2022-10-16T05:01:24;96552.88;;;16.12;73.83
73024;BME280;61199;47.526;8.538;2022-10-16T05:03:51;96553.34;;;16.15;73.38
73024;BME280;61199;47.526;8.538;2022-10-16T05:06:17;96544.78;;;16.13;73.55
73024;BME280;61199;47.526;8.538;2022-10-16T05:08:43;96545.75;;;16.12;73.76
73024;BME280;61199;47.526;8.538;2022-10-16T05:11:10;96540.47;;;16.04;73.94
73024;BME280;61199;47.526;8.538;2022-10-16T05:13:36;96541.13;;;16.14;73.77
73024;BME280;61199;47.526;8.538;2022-10-16T05:16:02;96541.47;;;16.11;73.70
73024;BME280;61199;47.526;8.538;2022-10-16T05:18:29;96535.84;;;16.14;73.33
73024;BME280;61199;47.526;8.538;2022-10-16T05:20:55;96532.22;;;16.15;73.28
73024;BME280;61199;47.526;8.538;2022-10-16T05:23:21;96544.47;;;16.16;73.39
73024;BME280;61199;47.526;8.538;2022-10-16T05:25:52;96533.88;;;16.16;73.69
73024;BME280;61199;47.526;8.538;2022-10-16T05:28:19;96542.28;;;16.20;73.20
73024;BME280;61199;47.526;8.538;2022-10-16T05:30:46;96547.75;;;16.18;73.58
73024;BME280;61199;47.526;8.538;2022-10-16T05:33:12;96547.41;;;16.21;73.17
73024;BME280;61199;47.526;8.538;2022-10-16T05:35:39;96555.03;;;16.16;73.08
73024;BME280;61199;47.526;8.538;2022-10-16T05:38:05;96547.09;;;16.16;73.08
73024;BME280;61199;47.526;8.538;2022-10-16T05:40:32;96554.34;;;16.22;73.04
73024;BME280;61199;47.526;8.538;2022-10-16T05:42:58;96550.25;;;16.12;73.08
73024;BME280;61199;47.526;8.538;2022-10-16T05:45:24;96545.59;;;16.14;73.15
73024;BME280;61199;47.526;8.538;2022-10-16T05:47:51;96553.03;;;16.18;72.77
73024;BME280;61199;47.526;8.538;2022-10-16T05:50:17;96550.38;;;16.02;73.67
73024;BME280;61199;47.526;8.538;2022-10-16T05:52:43;96551.88;;;16.05;73.26
73024;BME280;61199;47.526;8.538;2022-10-16T05:55:10;96548.09;;;16.07;73.13
73024;BME280;61199;47.526;8.538;2022-10-16T05:57:36;96550.38;;;16.02;73.18
73024;BME280;61199;47.526;8.538;2022-10-16T06:00:03;96544.59;;;16.07;73.07
73024;BME280;61199;47.526;8.538;2022-10-16T06:02:29;96549.06;;;16.06;73.24
73024;BME280;61199;47.526;8.538;2022-10-16T06:04:56;96552.53;;;16.07;73.33
73024;BME280;61199;47.526;8.538;2022-10-16T06:07:22;96547.09;;;16.08;73.42
73024;BME280;61199;47.526;8.538;2022-10-16T06:09:50;96553.38;;;15.99;73.47
73024;BME280;61199;47.526;8.538;2022-10-16T06:12:17;96554.00;;;15.93;73.58
73024;BME280;61199;47.526;8.538;2022-10-16T06:14:44;96556.50;;;15.95;73.64
73024;BME280;61199;47.526;8.538;2022-10-16T06:17:11;96564.25;;;15.80;74.03
73024;BME280;61199;47.526;8.538;2022-10-16T06:19:37;96565.88;;;15.73;74.15
73024;BME280;61199;47.526;8.538;2022-10-16T06:22:03;96578.28;;;15.31;75.98
73024;BME280;61199;47.526;8.538;2022-10-16T06:24:30;96586.72;;;15.01;76.99
73024;BME280;61199;47.526;8.538;2022-10-16T06:26:57;96587.97;;;14.89;77.57
73024;BME280;61199;47.526;8.538;2022-10-16T06:29:23;96597.69;;;14.89;77.73
73024;BME280;61199;47.526;8.538;2022-10-16T06:31:49;96594.25;;;15.22;76.43
73024;BME280;61199;47.526;8.538;2022-10-16T06:34:15;96609.84;;;15.41;75.89
73024;BME280;61199;47.526;8.538;2022-10-16T06:36:42;96604.78;;;15.55;75.84
73024;BME280;61199;47.526;8.538;2022-10-16T06:39:09;96610.75;;;15.65;75.27
73024;BME280;61199;47.526;8.538;2022-10-16T06:41:35;96614.94;;;15.76;75.12
73024;BME280;61199;47.526;8.538;2022-10-16T06:44:05;96617.59;;;15.84;74.71
73024;BME280;61199;47.526;8.538;2022-10-16T06:46:31;96622.06;;;15.91;74.53
73024;BME280;61199;47.526;8.538;2022-10-16T06:48:58;96634.63;;;15.97;74.26
73024;BME280;61199;47.526;8.538;2022-10-16T06:51:24;96635.78;;;16.03;74.13
73024;BME280;61199;47.526;8.538;2022-10-16T06:53:53;96634.94;;;16.02;74.05
73024;BME280;61199;47.526;8.538;2022-10-16T06:56:29;96630.59;;;15.77;75.35
73024;BME280;61199;47.526;8.538;2022-10-16T06:58:57;96638.06;;;15.90;74.86
73024;BME280;61199;47.526;8.538;2022-10-16T07:01:24;96640.88;;;15.88;75.23
73024;BME280;61199;47.526;8.538;2022-10-16T07:03:52;96632.25;;;15.86;75.17
73024;BME280;61199;47.526;8.538;2022-10-16T07:06:20;96638.47;;;15.69;75.45
73024;BME280;61199;47.526;8.538;2022-10-16T07:08:47;96634.59;;;15.81;75.05
73024;BME280;61199;47.526;8.538;2022-10-16T07:11:17;96640.69;;;15.82;75.29
73024;BME280;61199;47.526;8.538;2022-10-16T07:13:45;96635.25;;;15.83;75.21
73024;BME280;61199;47.526;8.538;2022-10-16T07:16:21;96647.59;;;15.83;75.18
73024;BME280;61199;47.526;8.538;2022-10-16T07:18:48;96650.44;;;15.81;75.33
73024;BME280;61199;47.526;8.538;2022-10-16T07:21:17;96668.00;;;15.57;76.29
73024;BME280;61199;47.526;8.538;2022-10-16T07:23:50;96668.03;;;15.31;77.34
73024;BME280;61199;47.526;8.538;2022-10-16T07:26:16;96667.34;;;15.29;77.57
73024;BME280;61199;47.526;8.538;2022-10-16T07:28:43;96683.06;;;15.31;77.45
73024;BME280;61199;47.526;8.538;2022-10-16T07:31:12;96685.31;;;15.26;78.09
73024;BME280;61199;47.526;8.538;2022-10-16T07:33:41;96690.28;;;15.54;76.77
73024;BME280;61199;47.526;8.538;2022-10-16T07:36:09;96683.00;;;15.56;77.02
73024;BME280;61199;47.526;8.538;2022-10-16T07:38:41;96687.94;;;15.85;76.27
73024;BME280;61199;47.526;8.538;2022-10-16T07:41:16;96681.88;;;16.08;75.36
73024;BME280;61199;47.526;8.538;2022-10-16T07:43:49;96679.91;;;16.18;75.14
73024;BME280;61199;47.526;8.538;2022-10-16T07:46:16;96683.28;;;16.36;74.58
73024;BME280;61199;47.526;8.538;2022-10-16T07:48:44;96681.94;;;16.40;74.98
73024;BME280;61199;47.526;8.538;2022-10-16T07:51:15;96686.44;;;16.40;75.10
73024;BME280;61199;47.526;8.538;2022-10-16T07:53:42;96687.41;;;16.47;74.84
73024;BME280;61199;47.526;8.538;2022-10-16T07:56:09;96682.47;;;16.60;74.61
73024;BME280;61199;47.526;8.538;2022-10-16T07:58:35;96681.28;;;16.70;74.66
73024;BME280;61199;47.526;8.538;2022-10-16T08:01:08;96683.28;;;16.84;74.32
73024;BME280;61199;47.526;8.538;2022-10-16T08:03:35;96692.88;;;17.01;73.74
73024;BME280;61199;47.526;8.538;2022-10-16T08:06:02;96683.59;;;17.13;73.05
73024;BME280;61199;47.526;8.538;2022-10-16T08:08:29;96696.81;;;17.21;72.66
73024;BME280;61199;47.526;8.538;2022-10-16T08:10:56;96689.50;;;17.31;72.27
73024;BME280;61199;47.526;8.538;2022-10-16T08:13:22;96699.63;;;17.36;72.01
73024;BME280;61199;47.526;8.538;2022-10-16T08:15:49;96696.16;;;17.27;71.75
73024;BME280;61199;47.526;8.538;2022-10-16T08:18:15;96699.13;;;17.40;71.66
73024;BME280;61199;47.526;8.538;2022-10-16T08:20:42;96700.44;;;17.20;72.46
73024;BME280;61199;47.526;8.538;2022-10-16T08:23:11;96699.94;;;17.33;72.06
73024;BME280;61199;47.526;8.538;2022-10-16T08:25:37;96712.41;;;17.00;72.55
73024;BME280;61199;47.526;8.538;2022-10-16T08:28:05;96712.06;;;16.95;73.22
73024;BME280;61199;47.526;8.538;2022-10-16T08:30:32;96717.00;;;17.14;73.05
73024;BME280;61199;47.526;8.538;2022-10-16T08:33:00;96724.28;;;17.28;72.24
73024;BME280;61199;47.526;8.538;2022-10-16T08:35:26;96726.94;;;17.04;72.54
73024;BME280;61199;47.526;8.538;2022-10-16T08:37:53;96726.09;;;17.20;72.22
73024;BME280;61199;47.526;8.538;2022-10-16T08:43:16;96730.19;;;17.62;71.25
73024;BME280;61199;47.526;8.538;2022-10-16T08:48:49;96722.59;;;17.97;70.37
73024;BME280;61199;47.526;8.538;2022-10-16T08:51:35;96722.03;;;18.10;70.16
73024;BME280;61199;47.526;8.538;2022-10-16T08:54:30;96724.94;;;18.23;69.54
73024;BME280;61199;47.526;8.538;2022-10-16T08:57:14;96723.94;;;18.32;69.28
73024;BME280;61199;47.526;8.538;2022-10-16T08:59:49;96719.13;;;18.27;68.54
73024;BME280;61199;47.526;8.538;2022-10-16T09:13:29;96738.16;;;18.39;68.47
73024;BME280;61199;47.526;8.538;2022-10-16T09:16:20;96745.72;;;18.50;68.38
73024;BME280;61199;47.526;8.538;2022-10-16T09:19:13;96747.63;;;18.64;67.75
73024;BME280;61199;47.526;8.538;2022-10-16T09:21:42;96748.16;;;18.59;67.81
73024;BME280;61199;47.526;8.538;2022-10-16T09:24:15;96743.78;;;18.44;68.28
73024;BME280;61199;47.526;8.538;2022-10-16T09:26:42;96737.13;;;18.48;68.17
73024;BME280;61199;47.526;8.538;2022-10-16T09:29:12;96742.81;;;18.67;67.46
73024;BME280;61199;47.526;8.538;2022-10-16T09:31:40;96740.44;;;18.95;66.95
73024;BME280;61199;47.526;8.538;2022-10-16T09:34:14;96739.94;;;19.14;66.27
73024;BME280;61199;47.526;8.538;2022-10-16T09:36:45;96748.97;;;19.05;65.39
73024;BME280;61199;47.526;8.538;2022-10-16T09:39:12;96744.66;;;19.04;65.61
73024;BME280;61199;47.526;8.538;2022-10-16T09:41:41;96742.19;;;19.25;64.82
73024;BME280;61199;47.526;8.538;2022-10-16T09:44:22;96745.78;;;19.32;64.79
73024;BME280;61199;47.526;8.538;2022-10-16T09:46:49;96747.19;;;19.42;64.69
73024;BME280;61199;47.526;8.538;2022-10-16T09:49:26;96748.72;;;19.37;64.72
73024;BME280;61199;47.526;8.538;2022-10-16T09:52:12;96751.44;;;19.66;64.34
73024;BME280;61199;47.526;8.538;2022-10-16T09:55:00;96738.50;;;19.77;63.49
73024;BME280;61199;47.526;8.538;2022-10-16T09:57:27;96740.78;;;19.95;63.21
73024;BME280;61199;47.526;8.538;2022-10-16T09:59:56;96734.84;;;20.22;62.60
73024;BME280;61199;47.526;8.538;2022-10-16T10:02:29;96735.81;;;20.35;62.32
73024;BME280;61199;47.526;8.538;2022-10-16T10:04:56;96737.88;;;20.54;62.29
73024;BME280;61199;47.526;8.538;2022-10-16T10:07:25;96728.59;;;20.65;62.01
73024;BME280;61199;47.526;8.538;2022-10-16T10:09:55;96730.69;;;20.69;62.14
73024;BME280;61199;47.526;8.538;2022-10-16T10:12:25;96730.41;;;20.64;62.57
73024;BME280;61199;47.526;8.538;2022-10-16T10:14:57;96730.47;;;20.71;62.61
73024;BME280;61199;47.526;8.538;2022-10-16T10:17:27;96731.72;;;20.89;62.04
73024;BME280;61199;47.526;8.538;2022-10-16T10:19:59;96734.88;;;20.99;61.97
73024;BME280;61199;47.526;8.538;2022-10-16T10:30:44;96724.78;;;21.15;59.70
73024;BME280;61199;47.526;8.538;2022-10-16T10:44:15;96731.09;;;21.35;57.76
73024;BME280;61199;47.526;8.538;2022-10-16T10:47:03;96720.63;;;21.61;57.71
73024;BME280;61199;47.526;8.538;2022-10-16T10:49:51;96715.03;;;21.77;56.89
73024;BME280;61199;47.526;8.538;2022-10-16T10:55:14;96714.19;;;22.17;55.73
73024;BME280;61199;47.526;8.538;2022-10-16T10:57:53;96704.38;;;22.31;56.03
73024;BME280;61199;47.526;8.538;2022-10-16T11:03:35;96708.94;;;22.37;54.94
73024;BME280;61199;47.526;8.538;2022-10-16T11:08:53;96708.69;;;22.25;53.40
73024;BME280;61199;47.526;8.538;2022-10-16T11:11:46;96712.75;;;22.15;54.24
73024;BME280;61199;47.526;8.538;2022-10-16T11:14:21;96705.53;;;22.49;53.76
73024;BME280;61199;47.526;8.538;2022-10-16T11:16:57;96702.09;;;22.75;53.05
73024;BME280;61199;47.526;8.538;2022-10-16T11:22:30;96696.34;;;22.97;52.59
73024;BME280;61199;47.526;8.538;2022-10-16T11:30:25;96688.38;;;23.10;49.82
73024;BME280;61199;47.526;8.538;2022-10-16T11:38:12;96679.72;;;23.41;50.16
73024;BME280;61199;47.526;8.538;2022-10-16T11:40:42;96678.25;;;23.58;50.46
73024;BME280;61199;47.526;8.538;2022-10-16T11:43:22;96683.41;;;23.85;49.66
73024;BME280;61199;47.526;8.538;2022-10-16T11:45:55;96684.03;;;23.55;49.58
73024;BME280;61199;47.526;8.538;2022-10-16T11:48:31;96681.16;;;23.56;49.03
73024;BME280;61199;47.526;8.538;2022-10-16T11:54:03;96678.88;;;23.66;49.67
73024;BME280;61199;47.526;8.538;2022-10-16T11:56:36;96672.94;;;23.51;50.58
73024;BME280;61199;47.526;8.538;2022-10-16T11:59:12;96671.28;;;23.57;50.71
73024;BME280;61199;47.526;8.538;2022-10-16T12:04:53;96667.00;;;24.19;50.33
73024;BME280;61199;47.526;8.538;2022-10-16T12:07:28;96658.44;;;23.91;49.47
73024;BME280;61199;47.526;8.538;2022-10-16T12:10:10;96658.56;;;24.16;49.32
73024;BME280;61199;47.526;8.538;2022-10-16T12:12:39;96650.78;;;24.51;48.64
73024;BME280;61199;47.526;8.538;2022-10-16T12:17:47;96650.22;;;25.29;46.63
73024;BME280;61199;47.526;8.538;2022-10-16T12:22:55;96645.06;;;25.52;44.65
73024;BME280;61199;47.526;8.538;2022-10-16T12:25:32;96641.00;;;25.86;44.66
73024;BME280;61199;47.526;8.538;2022-10-16T12:28:18;96636.53;;;26.16;43.76
73024;BME280;61199;47.526;8.538;2022-10-16T12:30:54;96635.78;;;26.09;44.53
73024;BME280;61199;47.526;8.538;2022-10-16T12:36:16;96636.13;;;27.01;42.93
73024;BME280;61199;47.526;8.538;2022-10-16T12:38:53;96631.88;;;27.46;41.70
73024;BME280;61199;47.526;8.538;2022-10-16T12:41:29;96633.19;;;27.89;40.21
73024;BME280;61199;47.526;8.538;2022-10-16T12:43:56;96629.84;;;28.21;40.11
73024;BME280;61199;47.526;8.538;2022-10-16T12:51:54;96619.13;;;28.38;38.79
73024;BME280;61199;47.526;8.538;2022-10-16T12:54:27;96625.00;;;28.63;38.87
73024;BME280;61199;47.526;8.538;2022-10-16T12:59:41;96626.50;;;28.42;38.67
73024;BME280;61199;47.526;8.538;2022-10-16T13:10:57;96622.53;;;29.06;38.98
73024;BME280;61199;47.526;8.538;2022-10-16T13:13:49;96629.00;;;29.05;39.85
73024;BME280;61199;47.526;8.538;2022-10-16T13:16:39;96634.25;;;28.67;40.18
73024;BME280;61199;47.526;8.538;2022-10-16T13:22:13;96632.59;;;28.94;41.25
73024;BME280;61199;47.526;8.538;2022-10-16T13:27:32;96632.78;;;29.04;41.04
73024;BME280;61199;47.526;8.538;2022-10-16T13:30:21;96638.91;;;28.99;41.16
73024;BME280;61199;47.526;8.538;2022-10-16T13:32:59;96636.13;;;28.94;40.56
73024;BME280;61199;47.526;8.538;2022-10-16T13:35:28;96635.97;;;29.01;39.99
73024;BME280;61199;47.526;8.538;2022-10-16T13:38:12;96634.75;;;29.08;39.48
73024;BME280;61199;47.526;8.538;2022-10-16T13:41:02;96633.66;;;29.09;39.95
73024;BME280;61199;47.526;8.538;2022-10-16T13:43:35;96643.25;;;29.33;39.78
73024;BME280;61199;47.526;8.538;2022-10-16T13:46:10;96628.94;;;29.16;38.23
73024;BME280;61199;47.526;8.538;2022-10-16T13:48:37;96632.03;;;29.08;38.42
73024;BME280;61199;47.526;8.538;2022-10-16T13:53:35;96636.38;;;28.93;38.83
73024;BME280;61199;47.526;8.538;2022-10-16T13:56:04;96641.94;;;29.03;38.92
73024;BME280;61199;47.526;8.538;2022-10-16T13:58:31;96634.66;;;29.03;38.99
73024;BME280;61199;47.526;8.538;2022-10-16T14:01:20;96634.25;;;29.11;38.83
73024;BME280;61199;47.526;8.538;2022-10-16T14:04:00;96636.28;;;29.21;38.71
73024;BME280;61199;47.526;8.538;2022-10-16T14:06:28;96641.03;;;29.14;37.75
73024;BME280;61199;47.526;8.538;2022-10-16T14:09:05;96635.97;;;29.01;37.20
73024;BME280;61199;47.526;8.538;2022-10-16T14:11:33;96634.53;;;28.82;37.35
73024;BME280;61199;47.526;8.538;2022-10-16T14:14:02;96632.72;;;28.71;37.57
73024;BME280;61199;47.526;8.538;2022-10-16T14:16:30;96632.44;;;28.72;37.46
73024;BME280;61199;47.526;8.538;2022-10-16T14:19:00;96633.72;;;28.53;37.35
73024;BME280;61199;47.526;8.538;2022-10-16T14:21:28;96637.59;;;28.57;37.75
73024;BME280;61199;47.526;8.538;2022-10-16T14:23:55;96633.31;;;28.61;37.72
73024;BME280;61199;47.526;8.538;2022-10-16T14:26:24;96635.63;;;28.69;37.92
73024;BME280;61199;47.526;8.538;2022-10-16T14:29:12;96636.50;;;28.19;39.81
73024;BME280;61199;47.526;8.538;2022-10-16T14:31:38;96638.72;;;28.33;38.61
73024;BME280;61199;47.526;8.538;2022-10-16T14:34:32;96643.00;;;28.46;38.42
73024;BME280;61199;47.526;8.538;2022-10-16T14:37:14;96639.09;;;28.53;38.37
73024;BME280;61199;47.526;8.538;2022-10-16T14:39:48;96645.44;;;28.47;37.75
73024;BME280;61199;47.526;8.538;2022-10-16T14:42:17;96646.28;;;28.48;37.98
73024;BME280;61199;47.526;8.538;2022-10-16T14:44:46;96652.81;;;28.52;38.21
73024;BME280;61199;47.526;8.538;2022-10-16T14:47:16;96641.38;;;28.45;38.11
73024;BME280;61199;47.526;8.538;2022-10-16T14:49:48;96639.88;;;28.37;38.04
73024;BME280;61199;47.526;8.538;2022-10-16T14:52:14;96646.88;;;28.38;37.86
73024;BME280;61199;47.526;8.538;2022-10-16T14:54:41;96652.28;;;28.38;37.75
73024;BME280;61199;47.526;8.538;2022-10-16T14:57:18;96668.81;;;28.30;38.07
73024;BME280;61199;47.526;8.538;2022-10-16T14:59:45;96668.38;;;28.22;38.68
73024;BME280;61199;47.526;8.538;2022-10-16T15:04:48;96668.28;;;28.05;38.36
73024;BME280;61199;47.526;8.538;2022-10-16T15:07:14;96673.69;;;27.94;38.24
73024;BME280;61199;47.526;8.538;2022-10-16T15:09:41;96680.38;;;27.91;39.33